Terminal Aerodrome Forecast
Issued by NWS

Home | Current Version | Previous Version | Text Only | Print | Product List | Glossary On
Versions: 1 2 3 4 5 6 7 8 9 10 11 12 13 14 15 16 17 18
000
FTUS45 KLKN 212340
TAFEKO
TAF
KEKO 212340Z 2200/2224 22004KT P6SM SCT040 BKN180
     FM221200 14003KT P6SM OVC050
     FM221500 15007KT 6SM -SHSN OVC030
      TEMPO 2216/2220 2SM -SHSN OVC015
     FM222100 24007KT P6SM VCSH BKN035 BKN120=

USA.gov is the U.S. government's official web portal to all federal, state and local government web resources and services.